sensor_id;sensor_type;location;lat;lon;timestamp;P1;durP1;ratioP1;P2;durP2;ratioP2
20391;SDS011;10355;53.688;10.078;2024-03-08T00:01:07;10.95;;;6.55;;
20391;SDS011;10355;53.688;10.078;2024-03-08T00:03:50;12.43;;;6.60;;
20391;SDS011;10355;53.688;10.078;2024-03-08T00:06:34;11.82;;;6.47;;
20391;SDS011;10355;53.688;10.078;2024-03-08T00:09:17;13.25;;;7.05;;
20391;SDS011;10355;53.688;10.078;2024-03-08T00:12:00;13.23;;;7.30;;
20391;SDS011;10355;53.688;10.078;2024-03-08T00:14:43;13.18;;;6.40;;
20391;SDS011;10355;53.688;10.078;2024-03-08T00:17:26;10.57;;;6.32;;
20391;SDS011;10355;53.688;10.078;2024-03-08T00:20:10;13.30;;;7.03;;
20391;SDS011;10355;53.688;10.078;2024-03-08T00:22:56;12.13;;;6.60;;
20391;SDS011;10355;53.688;10.078;2024-03-08T00:25:39;11.38;;;7.28;;
20391;SDS011;10355;53.688;10.078;2024-03-08T00:28:22;12.65;;;6.53;;
20391;SDS011;10355;53.688;10.078;2024-03-08T00:31:06;12.30;;;6.80;;
20391;SDS011;10355;53.688;10.078;2024-03-08T00:33:49;14.27;;;7.22;;
20391;SDS011;10355;53.688;10.078;2024-03-08T00:36:32;13.32;;;7.05;;
20391;SDS011;10355;53.688;10.078;2024-03-08T00:39:17;13.13;;;6.70;;
20391;SDS011;10355;53.688;10.078;2024-03-08T00:42:01;13.02;;;5.95;;
20391;SDS011;10355;53.688;10.078;2024-03-08T00:44:45;13.70;;;7.35;;
20391;SDS011;10355;53.688;10.078;2024-03-08T00:47:28;12.27;;;6.32;;
20391;SDS011;10355;53.688;10.078;2024-03-08T00:50:11;12.80;;;6.78;;
20391;SDS011;10355;53.688;10.078;2024-03-08T00:52:54;13.38;;;6.95;;
20391;SDS011;10355;53.688;10.078;2024-03-08T00:55:39;13.98;;;7.35;;
20391;SDS011;10355;53.688;10.078;2024-03-08T00:58:21;12.43;;;6.95;;
20391;SDS011;10355;53.688;10.078;2024-03-08T01:01:05;10.75;;;6.60;;
20391;SDS011;10355;53.688;10.078;2024-03-08T01:03:48;16.30;;;7.13;;
20391;SDS011;10355;53.688;10.078;2024-03-08T01:06:31;13.57;;;7.03;;
20391;SDS011;10355;53.688;10.078;2024-03-08T01:09:14;12.40;;;6.72;;
20391;SDS011;10355;53.688;10.078;2024-03-08T01:12:00;12.32;;;6.68;;
20391;SDS011;10355;53.688;10.078;2024-03-08T01:14:43;14.55;;;7.00;;
20391;SDS011;10355;53.688;10.078;2024-03-08T01:17:26;13.30;;;6.60;;
20391;SDS011;10355;53.688;10.078;2024-03-08T01:20:09;13.00;;;6.80;;
20391;SDS011;10355;53.688;10.078;2024-03-08T01:22:53;11.95;;;6.70;;
20391;SDS011;10355;53.688;10.078;2024-03-08T01:25:35;11.88;;;6.75;;
20391;SDS011;10355;53.688;10.078;2024-03-08T01:28:19;12.63;;;6.97;;
20391;SDS011;10355;53.688;10.078;2024-03-08T01:31:03;12.98;;;6.80;;
20391;SDS011;10355;53.688;10.078;2024-03-08T01:33:47;13.55;;;6.88;;
20391;SDS011;10355;53.688;10.078;2024-03-08T01:36:31;13.60;;;6.45;;
20391;SDS011;10355;53.688;10.078;2024-03-08T01:39:14;15.00;;;7.03;;
20391;SDS011;10355;53.688;10.078;2024-03-08T01:41:58;14.27;;;6.93;;
20391;SDS011;10355;53.688;10.078;2024-03-08T01:44:43;12.90;;;6.80;;
20391;SDS011;10355;53.688;10.078;2024-03-08T01:47:26;15.10;;;7.57;;
20391;SDS011;10355;53.688;10.078;2024-03-08T01:50:09;12.02;;;6.95;;
20391;SDS011;10355;53.688;10.078;2024-03-08T01:52:53;11.88;;;7.00;;
20391;SDS011;10355;53.688;10.078;2024-03-08T01:55:36;13.23;;;7.22;;
20391;SDS011;10355;53.688;10.078;2024-03-08T01:58:20;12.32;;;6.85;;
20391;SDS011;10355;53.688;10.078;2024-03-08T02:01:05;12.65;;;6.65;;
20391;SDS011;10355;53.688;10.078;2024-03-08T02:03:49;13.75;;;6.43;;
20391;SDS011;10355;53.688;10.078;2024-03-08T02:06:32;12.93;;;7.32;;
20391;SDS011;10355;53.688;10.078;2024-03-08T02:09:15;12.05;;;6.78;;
20391;SDS011;10355;53.688;10.078;2024-03-08T02:11:58;13.52;;;7.03;;
20391;SDS011;10355;53.688;10.078;2024-03-08T02:14:46;13.25;;;7.00;;
20391;SDS011;10355;53.688;10.078;2024-03-08T02:17:30;14.93;;;7.13;;
20391;SDS011;10355;53.688;10.078;2024-03-08T02:20:14;12.32;;;6.65;;
20391;SDS011;10355;53.688;10.078;2024-03-08T02:22:59;14.57;;;7.82;;
20391;SDS011;10355;53.688;10.078;2024-03-08T02:25:42;12.73;;;7.07;;
20391;SDS011;10355;53.688;10.078;2024-03-08T02:28:25;13.98;;;7.05;;
20391;SDS011;10355;53.688;10.078;2024-03-08T02:31:07;14.48;;;6.97;;
20391;SDS011;10355;53.688;10.078;2024-03-08T02:33:50;12.07;;;6.70;;
20391;SDS011;10355;53.688;10.078;2024-03-08T02:36:33;13.88;;;7.57;;
20391;SDS011;10355;53.688;10.078;2024-03-08T02:39:18;13.32;;;7.07;;
20391;SDS011;10355;53.688;10.078;2024-03-08T02:42:01;13.63;;;6.85;;
20391;SDS011;10355;53.688;10.078;2024-03-08T02:44:44;11.55;;;6.65;;
20391;SDS011;10355;53.688;10.078;2024-03-08T02:47:27;11.88;;;6.57;;
20391;SDS011;10355;53.688;10.078;2024-03-08T02:50:13;14.35;;;7.13;;
20391;SDS011;10355;53.688;10.078;2024-03-08T02:52:57;12.38;;;6.88;;
20391;SDS011;10355;53.688;10.078;2024-03-08T02:55:41;13.05;;;7.03;;
20391;SDS011;10355;53.688;10.078;2024-03-08T02:58:24;13.02;;;6.80;;
20391;SDS011;10355;53.688;10.078;2024-03-08T03:01:07;14.95;;;7.22;;
20391;SDS011;10355;53.688;10.078;2024-03-08T03:03:51;11.05;;;6.35;;
20391;SDS011;10355;53.688;10.078;2024-03-08T03:06:34;12.35;;;6.60;;
20391;SDS011;10355;53.688;10.078;2024-03-08T03:09:17;11.32;;;6.60;;
20391;SDS011;10355;53.688;10.078;2024-03-08T03:12:06;16.25;;;6.88;;
20391;SDS011;10355;53.688;10.078;2024-03-08T03:14:50;13.43;;;6.88;;
20391;SDS011;10355;53.688;10.078;2024-03-08T03:17:33;12.77;;;6.63;;
20391;SDS011;10355;53.688;10.078;2024-03-08T03:20:16;13.40;;;6.57;;
20391;SDS011;10355;53.688;10.078;2024-03-08T03:23:04;13.60;;;7.07;;
20391;SDS011;10355;53.688;10.078;2024-03-08T03:25:49;11.02;;;6.30;;
20391;SDS011;10355;53.688;10.078;2024-03-08T03:28:35;10.75;;;6.13;;
20391;SDS011;10355;53.688;10.078;2024-03-08T03:31:20;11.80;;;6.72;;
20391;SDS011;10355;53.688;10.078;2024-03-08T03:34:05;11.93;;;6.32;;
20391;SDS011;10355;53.688;10.078;2024-03-08T03:36:50;12.27;;;6.15;;
20391;SDS011;10355;53.688;10.078;2024-03-08T03:39:32;14.85;;;6.70;;
20391;SDS011;10355;53.688;10.078;2024-03-08T03:42:16;13.65;;;6.38;;
20391;SDS011;10355;53.688;10.078;2024-03-08T03:45:00;13.65;;;6.60;;
20391;SDS011;10355;53.688;10.078;2024-03-08T03:47:43;10.90;;;6.15;;
20391;SDS011;10355;53.688;10.078;2024-03-08T03:50:26;11.73;;;6.85;;
20391;SDS011;10355;53.688;10.078;2024-03-08T03:53:09;14.35;;;7.03;;
20391;SDS011;10355;53.688;10.078;2024-03-08T03:55:52;14.15;;;6.70;;
20391;SDS011;10355;53.688;10.078;2024-03-08T03:58:35;11.35;;;6.20;;
20391;SDS011;10355;53.688;10.078;2024-03-08T04:01:19;13.50;;;6.60;;
20391;SDS011;10355;53.688;10.078;2024-03-08T04:04:02;11.02;;;6.15;;
20391;SDS011;10355;53.688;10.078;2024-03-08T04:06:47;12.40;;;6.45;;
20391;SDS011;10355;53.688;10.078;2024-03-08T04:09:34;17.05;;;7.15;;
20391;SDS011;10355;53.688;10.078;2024-03-08T04:12:17;13.10;;;7.03;;
20391;SDS011;10355;53.688;10.078;2024-03-08T04:15:00;11.45;;;6.47;;
20391;SDS011;10355;53.688;10.078;2024-03-08T04:17:44;11.00;;;6.38;;
20391;SDS011;10355;53.688;10.078;2024-03-08T04:20:28;13.40;;;6.97;;
20391;SDS011;10355;53.688;10.078;2024-03-08T04:23:11;15.10;;;6.53;;
20391;SDS011;10355;53.688;10.078;2024-03-08T04:25:54;12.07;;;6.63;;
20391;SDS011;10355;53.688;10.078;2024-03-08T04:28:37;13.63;;;6.93;;
20391;SDS011;10355;53.688;10.078;2024-03-08T04:31:21;12.73;;;6.38;;
20391;SDS011;10355;53.688;10.078;2024-03-08T04:34:05;13.23;;;6.65;;
20391;SDS011;10355;53.688;10.078;2024-03-08T04:36:48;13.13;;;6.22;;
20391;SDS011;10355;53.688;10.078;2024-03-08T04:39:30;12.48;;;6.88;;
20391;SDS011;10355;53.688;10.078;2024-03-08T04:42:13;13.07;;;7.05;;
20391;SDS011;10355;53.688;10.078;2024-03-08T04:44:59;13.18;;;6.65;;
20391;SDS011;10355;53.688;10.078;2024-03-08T04:47:42;12.13;;;6.20;;
20391;SDS011;10355;53.688;10.078;2024-03-08T04:50:26;11.90;;;6.50;;
20391;SDS011;10355;53.688;10.078;2024-03-08T04:53:10;12.38;;;6.40;;
20391;SDS011;10355;53.688;10.078;2024-03-08T04:55:53;11.20;;;6.50;;
20391;SDS011;10355;53.688;10.078;2024-03-08T04:58:36;12.82;;;6.70;;
20391;SDS011;10355;53.688;10.078;2024-03-08T05:01:19;10.35;;;6.15;;
20391;SDS011;10355;53.688;10.078;2024-03-08T05:04:01;13.80;;;7.10;;
20391;SDS011;10355;53.688;10.078;2024-03-08T05:06:49;11.80;;;6.10;;
20391;SDS011;10355;53.688;10.078;2024-03-08T05:09:31;14.38;;;6.80;;
20391;SDS011;10355;53.688;10.078;2024-03-08T05:12:15;12.85;;;7.10;;
20391;SDS011;10355;53.688;10.078;2024-03-08T05:14:58;13.45;;;7.15;;
20391;SDS011;10355;53.688;10.078;2024-03-08T05:17:42;14.02;;;7.43;;
20391;SDS011;10355;53.688;10.078;2024-03-08T05:20:24;13.85;;;7.00;;
20391;SDS011;10355;53.688;10.078;2024-03-08T05:23:08;12.23;;;6.80;;
20391;SDS011;10355;53.688;10.078;2024-03-08T05:25:52;16.23;;;7.82;;
20391;SDS011;10355;53.688;10.078;2024-03-08T05:28:35;15.50;;;7.43;;
20391;SDS011;10355;53.688;10.078;2024-03-08T05:31:19;12.70;;;7.28;;
20391;SDS011;10355;53.688;10.078;2024-03-08T05:34:02;14.88;;;7.07;;
20391;SDS011;10355;53.688;10.078;2024-03-08T05:36:45;13.93;;;6.88;;
20391;SDS011;10355;53.688;10.078;2024-03-08T05:39:30;13.00;;;7.47;;
20391;SDS011;10355;53.688;10.078;2024-03-08T05:42:12;14.80;;;7.50;;
20391;SDS011;10355;53.688;10.078;2024-03-08T05:44:55;15.23;;;7.45;;
20391;SDS011;10355;53.688;10.078;2024-03-08T05:47:38;16.63;;;8.02;;
20391;SDS011;10355;53.688;10.078;2024-03-08T05:50:21;14.43;;;7.68;;
20391;SDS011;10355;53.688;10.078;2024-03-08T05:53:04;14.80;;;7.85;;
20391;SDS011;10355;53.688;10.078;2024-03-08T05:55:49;14.10;;;7.63;;
20391;SDS011;10355;53.688;10.078;2024-03-08T05:58:32;16.48;;;8.05;;
20391;SDS011;10355;53.688;10.078;2024-03-08T06:01:14;16.88;;;8.35;;
20391;SDS011;10355;53.688;10.078;2024-03-08T06:03:57;13.52;;;7.70;;
20391;SDS011;10355;53.688;10.078;2024-03-08T06:06:40;13.55;;;6.95;;
20391;SDS011;10355;53.688;10.078;2024-03-08T06:09:23;14.57;;;7.65;;
20391;SDS011;10355;53.688;10.078;2024-03-08T06:12:07;18.33;;;8.48;;
20391;SDS011;10355;53.688;10.078;2024-03-08T06:14:52;13.80;;;7.72;;
20391;SDS011;10355;53.688;10.078;2024-03-08T06:17:35;12.88;;;7.45;;
20391;SDS011;10355;53.688;10.078;2024-03-08T06:20:18;14.70;;;7.90;;
20391;SDS011;10355;53.688;10.078;2024-03-08T06:23:01;15.68;;;8.25;;
20391;SDS011;10355;53.688;10.078;2024-03-08T06:25:44;12.73;;;7.20;;
20391;SDS011;10355;53.688;10.078;2024-03-08T06:28:28;14.45;;;7.88;;
20391;SDS011;10355;53.688;10.078;2024-03-08T06:31:11;16.27;;;8.20;;
20391;SDS011;10355;53.688;10.078;2024-03-08T06:33:54;14.15;;;7.40;;
20391;SDS011;10355;53.688;10.078;2024-03-08T06:36:38;16.05;;;8.68;;
20391;SDS011;10355;53.688;10.078;2024-03-08T06:39:21;17.35;;;7.80;;
20391;SDS011;10355;53.688;10.078;2024-03-08T06:42:06;18.40;;;8.88;;
20391;SDS011;10355;53.688;10.078;2024-03-08T06:44:52;14.77;;;7.80;;
20391;SDS011;10355;53.688;10.078;2024-03-08T06:47:37;14.68;;;7.93;;
20391;SDS011;10355;53.688;10.078;2024-03-08T06:50:19;15.02;;;8.13;;
20391;SDS011;10355;53.688;10.078;2024-03-08T06:53:02;15.05;;;8.32;;
20391;SDS011;10355;53.688;10.078;2024-03-08T06:55:45;15.95;;;8.77;;
20391;SDS011;10355;53.688;10.078;2024-03-08T06:58:27;14.77;;;7.65;;
20391;SDS011;10355;53.688;10.078;2024-03-08T07:01:11;13.88;;;7.80;;
20391;SDS011;10355;53.688;10.078;2024-03-08T07:03:56;16.23;;;8.05;;
20391;SDS011;10355;53.688;10.078;2024-03-08T07:06:39;14.18;;;7.68;;
20391;SDS011;10355;53.688;10.078;2024-03-08T07:09:22;14.38;;;8.57;;
20391;SDS011;10355;53.688;10.078;2024-03-08T07:12:05;17.33;;;8.93;;
20391;SDS011;10355;53.688;10.078;2024-03-08T07:14:49;16.17;;;8.25;;
20391;SDS011;10355;53.688;10.078;2024-03-08T07:17:33;17.45;;;8.40;;
20391;SDS011;10355;53.688;10.078;2024-03-08T07:20:16;17.05;;;8.43;;
20391;SDS011;10355;53.688;10.078;2024-03-08T07:23:00;15.85;;;8.88;;
20391;SDS011;10355;53.688;10.078;2024-03-08T07:25:43;18.05;;;9.23;;
20391;SDS011;10355;53.688;10.078;2024-03-08T07:28:26;16.25;;;8.00;;
20391;SDS011;10355;53.688;10.078;2024-03-08T07:31:09;15.05;;;8.68;;
20391;SDS011;10355;53.688;10.078;2024-03-08T07:34:04;15.18;;;8.43;;
20391;SDS011;10355;53.688;10.078;2024-03-08T07:36:49;19.05;;;8.85;;
20391;SDS011;10355;53.688;10.078;2024-03-08T07:39:32;17.30;;;8.85;;
20391;SDS011;10355;53.688;10.078;2024-03-08T07:42:15;18.08;;;9.60;;
20391;SDS011;10355;53.688;10.078;2024-03-08T07:44:58;19.27;;;9.60;;
20391;SDS011;10355;53.688;10.078;2024-03-08T07:47:41;16.73;;;9.60;;
20391;SDS011;10355;53.688;10.078;2024-03-08T07:50:25;17.98;;;9.40;;
20391;SDS011;10355;53.688;10.078;2024-03-08T07:53:08;17.67;;;10.10;;
20391;SDS011;10355;53.688;10.078;2024-03-08T07:55:51;18.58;;;10.07;;
20391;SDS011;10355;53.688;10.078;2024-03-08T07:58:34;17.92;;;9.73;;
20391;SDS011;10355;53.688;10.078;2024-03-08T08:01:17;18.42;;;9.57;;
20391;SDS011;10355;53.688;10.078;2024-03-08T08:04:00;17.08;;;9.23;;
20391;SDS011;10355;53.688;10.078;2024-03-08T08:06:45;17.90;;;9.15;;
20391;SDS011;10355;53.688;10.078;2024-03-08T08:09:27;18.95;;;9.57;;
20391;SDS011;10355;53.688;10.078;2024-03-08T08:12:16;16.20;;;9.05;;
20391;SDS011;10355;53.688;10.078;2024-03-08T08:14:58;18.17;;;9.85;;
20391;SDS011;10355;53.688;10.078;2024-03-08T08:17:41;17.02;;;9.13;;
20391;SDS011;10355;53.688;10.078;2024-03-08T08:20:24;17.50;;;8.88;;
20391;SDS011;10355;53.688;10.078;2024-03-08T08:23:10;19.98;;;10.10;;
20391;SDS011;10355;53.688;10.078;2024-03-08T08:25:53;18.25;;;9.00;;
20391;SDS011;10355;53.688;10.078;2024-03-08T08:28:37;15.75;;;9.30;;
20391;SDS011;10355;53.688;10.078;2024-03-08T08:31:20;17.73;;;8.98;;
20391;SDS011;10355;53.688;10.078;2024-03-08T08:34:02;17.08;;;9.18;;
20391;SDS011;10355;53.688;10.078;2024-03-08T08:36:46;17.05;;;9.13;;
20391;SDS011;10355;53.688;10.078;2024-03-08T08:39:30;19.95;;;10.25;;
20391;SDS011;10355;53.688;10.078;2024-03-08T08:42:13;19.55;;;9.68;;
20391;SDS011;10355;53.688;10.078;2024-03-08T08:44:56;18.77;;;9.60;;
20391;SDS011;10355;53.688;10.078;2024-03-08T08:47:49;18.65;;;8.60;;
20391;SDS011;10355;53.688;10.078;2024-03-08T08:50:32;17.30;;;9.50;;
20391;SDS011;10355;53.688;10.078;2024-03-08T08:53:14;19.08;;;10.30;;
20391;SDS011;10355;53.688;10.078;2024-03-08T08:55:59;18.60;;;9.52;;
20391;SDS011;10355;53.688;10.078;2024-03-08T08:58:43;20.08;;;9.50;;
20391;SDS011;10355;53.688;10.078;2024-03-08T09:01:26;17.08;;;9.45;;
20391;SDS011;10355;53.688;10.078;2024-03-08T09:04:10;17.67;;;9.40;;
20391;SDS011;10355;53.688;10.078;2024-03-08T09:06:54;17.80;;;9.70;;
20391;SDS011;10355;53.688;10.078;2024-03-08T09:09:38;15.20;;;9.05;;
20391;SDS011;10355;53.688;10.078;2024-03-08T09:12:22;18.73;;;10.13;;
20391;SDS011;10355;53.688;10.078;2024-03-08T09:15:05;18.08;;;9.88;;
20391;SDS011;10355;53.688;10.078;2024-03-08T09:17:52;20.45;;;9.90;;
20391;SDS011;10355;53.688;10.078;2024-03-08T09:20:35;18.98;;;9.75;;
20391;SDS011;10355;53.688;10.078;2024-03-08T09:23:19;20.70;;;9.32;;
20391;SDS011;10355;53.688;10.078;2024-03-08T09:26:02;20.42;;;9.73;;
20391;SDS011;10355;53.688;10.078;2024-03-08T09:28:50;16.25;;;9.15;;
20391;SDS011;10355;53.688;10.078;2024-03-08T09:31:32;24.08;;;9.75;;
20391;SDS011;10355;53.688;10.078;2024-03-08T09:34:15;19.23;;;9.82;;
20391;SDS011;10355;53.688;10.078;2024-03-08T09:37:05;18.63;;;9.75;;
20391;SDS011;10355;53.688;10.078;2024-03-08T09:39:50;19.08;;;9.55;;
20391;SDS011;10355;53.688;10.078;2024-03-08T09:42:33;17.20;;;9.32;;
20391;SDS011;10355;53.688;10.078;2024-03-08T09:45:21;17.73;;;10.13;;
20391;SDS011;10355;53.688;10.078;2024-03-08T09:48:06;17.85;;;9.85;;
20391;SDS011;10355;53.688;10.078;2024-03-08T09:50:50;17.85;;;10.02;;
20391;SDS011;10355;53.688;10.078;2024-03-08T09:53:33;22.40;;;10.50;;
20391;SDS011;10355;53.688;10.078;2024-03-08T09:56:16;18.58;;;10.05;;
20391;SDS011;10355;53.688;10.078;2024-03-08T09:58:58;19.95;;;9.82;;
20391;SDS011;10355;53.688;10.078;2024-03-08T10:02:09;19.20;;;10.05;;
20391;SDS011;10355;53.688;10.078;2024-03-08T10:04:56;17.95;;;9.75;;
20391;SDS011;10355;53.688;10.078;2024-03-08T10:07:39;19.88;;;9.95;;
20391;SDS011;10355;53.688;10.078;2024-03-08T10:10:22;20.42;;;9.93;;
20391;SDS011;10355;53.688;10.078;2024-03-08T10:13:05;19.95;;;10.32;;
20391;SDS011;10355;53.688;10.078;2024-03-08T10:15:49;22.67;;;10.32;;
20391;SDS011;10355;53.688;10.078;2024-03-08T10:18:34;19.00;;;10.07;;
20391;SDS011;10355;53.688;10.078;2024-03-08T10:21:16;21.80;;;10.63;;
20391;SDS011;10355;53.688;10.078;2024-03-08T10:24:00;17.58;;;9.80;;
20391;SDS011;10355;53.688;10.078;2024-03-08T10:26:46;19.88;;;9.40;;
20391;SDS011;10355;53.688;10.078;2024-03-08T10:29:29;18.75;;;9.55;;
20391;SDS011;10355;53.688;10.078;2024-03-08T10:32:12;18.45;;;10.02;;
20391;SDS011;10355;53.688;10.078;2024-03-08T10:34:56;19.35;;;10.32;;
20391;SDS011;10355;53.688;10.078;2024-03-08T10:37:45;17.60;;;9.73;;
20391;SDS011;10355;53.688;10.078;2024-03-08T10:40:29;18.70;;;9.30;;
20391;SDS011;10355;53.688;10.078;2024-03-08T10:43:14;18.00;;;9.48;;
20391;SDS011;10355;53.688;10.078;2024-03-08T10:46:01;19.20;;;10.35;;
20391;SDS011;10355;53.688;10.078;2024-03-08T10:48:45;17.15;;;9.35;;
20391;SDS011;10355;53.688;10.078;2024-03-08T10:51:32;17.80;;;9.68;;
20391;SDS011;10355;53.688;10.078;2024-03-08T10:54:15;18.23;;;9.23;;
20391;SDS011;10355;53.688;10.078;2024-03-08T10:56:59;17.98;;;9.52;;
20391;SDS011;10355;53.688;10.078;2024-03-08T10:59:42;18.33;;;9.07;;
20391;SDS011;10355;53.688;10.078;2024-03-08T11:02:26;18.00;;;9.43;;
20391;SDS011;10355;53.688;10.078;2024-03-08T11:05:10;17.85;;;8.90;;
20391;SDS011;10355;53.688;10.078;2024-03-08T11:07:55;17.30;;;9.23;;
20391;SDS011;10355;53.688;10.078;2024-03-08T11:10:46;18.77;;;9.38;;
20391;SDS011;10355;53.688;10.078;2024-03-08T11:13:32;17.08;;;9.10;;
20391;SDS011;10355;53.688;10.078;2024-03-08T11:16:36;18.00;;;8.95;;
20391;SDS011;10355;53.688;10.078;2024-03-08T11:19:25;18.60;;;9.05;;
20391;SDS011;10355;53.688;10.078;2024-03-08T11:22:13;18.63;;;8.85;;
20391;SDS011;10355;53.688;10.078;2024-03-08T11:25:04;19.20;;;8.60;;
20391;SDS011;10355;53.688;10.078;2024-03-08T11:27:52;17.90;;;9.00;;
20391;SDS011;10355;53.688;10.078;2024-03-08T11:30:35;17.95;;;8.98;;
20391;SDS011;10355;53.688;10.078;2024-03-08T11:33:20;16.70;;;8.32;;
20391;SDS011;10355;53.688;10.078;2024-03-08T11:36:02;16.77;;;8.80;;
20391;SDS011;10355;53.688;10.078;2024-03-08T11:38:50;16.35;;;8.88;;
20391;SDS011;10355;53.688;10.078;2024-03-08T11:41:35;18.80;;;8.60;;
20391;SDS011;10355;53.688;10.078;2024-03-08T11:44:20;16.67;;;8.30;;
20391;SDS011;10355;53.688;10.078;2024-03-08T11:47:07;19.35;;;9.02;;
20391;SDS011;10355;53.688;10.078;2024-03-08T11:49:51;19.65;;;8.90;;
20391;SDS011;10355;53.688;10.078;2024-03-08T11:52:35;19.58;;;8.95;;
20391;SDS011;10355;53.688;10.078;2024-03-08T11:55:18;18.13;;;8.65;;
20391;SDS011;10355;53.688;10.078;2024-03-08T11:58:04;16.27;;;8.43;;
20391;SDS011;10355;53.688;10.078;2024-03-08T12:00:54;17.05;;;8.40;;
20391;SDS011;10355;53.688;10.078;2024-03-08T12:03:48;17.30;;;9.00;;
20391;SDS011;10355;53.688;10.078;2024-03-08T12:06:39;16.50;;;8.30;;
20391;SDS011;10355;53.688;10.078;2024-03-08T12:09:22;17.50;;;9.10;;
20391;SDS011;10355;53.688;10.078;2024-03-08T12:12:06;18.85;;;8.98;;
20391;SDS011;10355;53.688;10.078;2024-03-08T12:14:51;14.80;;;8.10;;
20391;SDS011;10355;53.688;10.078;2024-03-08T12:17:34;16.15;;;9.13;;
20391;SDS011;10355;53.688;10.078;2024-03-08T12:20:17;17.50;;;8.48;;
20391;SDS011;10355;53.688;10.078;2024-03-08T12:23:03;18.73;;;8.88;;
20391;SDS011;10355;53.688;10.078;2024-03-08T12:25:47;16.17;;;8.02;;
20391;SDS011;10355;53.688;10.078;2024-03-08T12:28:30;18.35;;;9.07;;
20391;SDS011;10355;53.688;10.078;2024-03-08T12:31:15;18.85;;;9.05;;
20391;SDS011;10355;53.688;10.078;2024-03-08T12:34:00;20.67;;;8.98;;
20391;SDS011;10355;53.688;10.078;2024-03-08T12:36:45;17.83;;;9.15;;
20391;SDS011;10355;53.688;10.078;2024-03-08T12:39:29;18.00;;;9.02;;
20391;SDS011;10355;53.688;10.078;2024-03-08T12:42:12;16.00;;;8.55;;
20391;SDS011;10355;53.688;10.078;2024-03-08T12:44:55;18.27;;;8.35;;
20391;SDS011;10355;53.688;10.078;2024-03-08T12:47:39;17.23;;;8.48;;
20391;SDS011;10355;53.688;10.078;2024-03-08T12:50:23;16.38;;;8.77;;
20391;SDS011;10355;53.688;10.078;2024-03-08T12:53:07;17.40;;;8.85;;
20391;SDS011;10355;53.688;10.078;2024-03-08T12:55:50;18.95;;;8.93;;
20391;SDS011;10355;53.688;10.078;2024-03-08T12:58:34;19.25;;;8.80;;
20391;SDS011;10355;53.688;10.078;2024-03-08T13:01:17;16.98;;;8.50;;
20391;SDS011;10355;53.688;10.078;2024-03-08T13:04:02;20.38;;;9.35;;
20391;SDS011;10355;53.688;10.078;2024-03-08T13:06:45;16.17;;;8.43;;
20391;SDS011;10355;53.688;10.078;2024-03-08T13:09:35;16.30;;;8.45;;
20391;SDS011;10355;53.688;10.078;2024-03-08T13:12:19;16.35;;;8.55;;
20391;SDS011;10355;53.688;10.078;2024-03-08T13:15:02;16.55;;;8.20;;
20391;SDS011;10355;53.688;10.078;2024-03-08T13:17:46;22.73;;;8.63;;
20391;SDS011;10355;53.688;10.078;2024-03-08T13:20:31;16.10;;;8.38;;
20391;SDS011;10355;53.688;10.078;2024-03-08T13:23:27;18.27;;;8.50;;
20391;SDS011;10355;53.688;10.078;2024-03-08T13:26:10;16.05;;;8.13;;
20391;SDS011;10355;53.688;10.078;2024-03-08T13:28:56;15.52;;;7.70;;
20391;SDS011;10355;53.688;10.078;2024-03-08T13:31:40;16.30;;;7.95;;
20391;SDS011;10355;53.688;10.078;2024-03-08T13:34:22;16.88;;;8.00;;
20391;SDS011;10355;53.688;10.078;2024-03-08T13:37:12;16.35;;;8.23;;
20391;SDS011;10355;53.688;10.078;2024-03-08T13:39:57;16.33;;;8.48;;
20391;SDS011;10355;53.688;10.078;2024-03-08T13:42:40;16.00;;;8.07;;
20391;SDS011;10355;53.688;10.078;2024-03-08T13:45:24;17.13;;;8.07;;
20391;SDS011;10355;53.688;10.078;2024-03-08T13:48:07;17.98;;;9.05;;
20391;SDS011;10355;53.688;10.078;2024-03-08T13:50:54;15.57;;;8.05;;
20391;SDS011;10355;53.688;10.078;2024-03-08T13:53:40;16.33;;;8.25;;
20391;SDS011;10355;53.688;10.078;2024-03-08T13:56:23;17.05;;;7.78;;
20391;SDS011;10355;53.688;10.078;2024-03-08T13:59:06;15.63;;;7.18;;
20391;SDS011;10355;53.688;10.078;2024-03-08T14:01:50;16.73;;;8.20;;
20391;SDS011;10355;53.688;10.078;2024-03-08T14:04:33;15.85;;;7.82;;
20391;SDS011;10355;53.688;10.078;2024-03-08T14:07:16;18.77;;;8.15;;
20391;SDS011;10355;53.688;10.078;2024-03-08T14:10:00;15.13;;;8.07;;
20391;SDS011;10355;53.688;10.078;2024-03-08T14:12:43;16.40;;;8.02;;
20391;SDS011;10355;53.688;10.078;2024-03-08T14:15:26;17.75;;;8.38;;
20391;SDS011;10355;53.688;10.078;2024-03-08T14:18:09;16.65;;;8.52;;
20391;SDS011;10355;53.688;10.078;2024-03-08T14:20:54;13.40;;;7.65;;
20391;SDS011;10355;53.688;10.078;2024-03-08T14:23:37;15.52;;;7.68;;
20391;SDS011;10355;53.688;10.078;2024-03-08T14:26:21;14.63;;;7.82;;
20391;SDS011;10355;53.688;10.078;2024-03-08T14:29:04;15.32;;;8.00;;
20391;SDS011;10355;53.688;10.078;2024-03-08T14:31:46;15.32;;;7.75;;
20391;SDS011;10355;53.688;10.078;2024-03-08T14:34:29;13.85;;;7.57;;
20391;SDS011;10355;53.688;10.078;2024-03-08T14:37:12;17.00;;;7.65;;
20391;SDS011;10355;53.688;10.078;2024-03-08T14:39:55;16.35;;;7.32;;
20391;SDS011;10355;53.688;10.078;2024-03-08T14:42:42;17.60;;;8.00;;
20391;SDS011;10355;53.688;10.078;2024-03-08T14:45:26;17.70;;;8.18;;
20391;SDS011;10355;53.688;10.078;2024-03-08T14:48:09;14.90;;;7.38;;
20391;SDS011;10355;53.688;10.078;2024-03-08T14:50:53;15.98;;;7.30;;
20391;SDS011;10355;53.688;10.078;2024-03-08T14:53:36;13.07;;;7.13;;
20391;SDS011;10355;53.688;10.078;2024-03-08T14:56:21;15.85;;;7.45;;
20391;SDS011;10355;53.688;10.078;2024-03-08T14:59:06;16.20;;;7.78;;
20391;SDS011;10355;53.688;10.078;2024-03-08T15:01:50;15.85;;;7.53;;
20391;SDS011;10355;53.688;10.078;2024-03-08T15:04:33;15.43;;;7.72;;
20391;SDS011;10355;53.688;10.078;2024-03-08T15:07:17;15.52;;;7.70;;
20391;SDS011;10355;53.688;10.078;2024-03-08T15:10:00;16.52;;;7.90;;
20391;SDS011;10355;53.688;10.078;2024-03-08T15:12:44;15.35;;;7.97;;
20391;SDS011;10355;53.688;10.078;2024-03-08T15:15:34;15.70;;;7.72;;
20391;SDS011;10355;53.688;10.078;2024-03-08T15:18:16;15.30;;;7.65;;
20391;SDS011;10355;53.688;10.078;2024-03-08T15:20:59;13.82;;;7.57;;
20391;SDS011;10355;53.688;10.078;2024-03-08T15:23:42;15.25;;;7.13;;
20391;SDS011;10355;53.688;10.078;2024-03-08T15:26:31;15.85;;;7.30;;
20391;SDS011;10355;53.688;10.078;2024-03-08T15:29:14;15.05;;;7.07;;
20391;SDS011;10355;53.688;10.078;2024-03-08T15:31:58;15.70;;;7.50;;
20391;SDS011;10355;53.688;10.078;2024-03-08T15:34:42;15.23;;;7.57;;
20391;SDS011;10355;53.688;10.078;2024-03-08T15:37:24;15.95;;;7.22;;
20391;SDS011;10355;53.688;10.078;2024-03-08T15:40:10;14.48;;;7.40;;
20391;SDS011;10355;53.688;10.078;2024-03-08T15:43:02;14.77;;;7.57;;
20391;SDS011;10355;53.688;10.078;2024-03-08T15:45:45;16.52;;;8.10;;
20391;SDS011;10355;53.688;10.078;2024-03-08T15:48:29;15.00;;;7.57;;
20391;SDS011;10355;53.688;10.078;2024-03-08T15:51:12;16.55;;;8.18;;
20391;SDS011;10355;53.688;10.078;2024-03-08T15:53:55;19.25;;;7.70;;
20391;SDS011;10355;53.688;10.078;2024-03-08T15:56:38;16.40;;;7.88;;
20391;SDS011;10355;53.688;10.078;2024-03-08T15:59:21;16.25;;;7.97;;